Time;durP1;ratioP1;P1;durP2;ratioP2;P2;SDS_P1;SDS_P2;PMS_P1;PMS_P2;Temp;Humidity;BMP_temperature;BMP_pressure;BME280_temperature;BME280_humidity;BME280_pressure;Samples;Min_cycle;Max_cycle;Signal;HPM_P1;HPM_P2
2024/04/08 00:03:18;;;;;;;6.38;3.72;;;;;;;14.19;100.00;100022.38;10212177;29;20058;-77
2024/04/08 00:08:18;;;;;;;8.05;2.90;;;;;;;14.28;100.00;100002.50;10201115;29;20059;-78
2024/04/08 00:13:19;;;;;;;8.82;3.10;;;;;;;14.31;100.00;99976.03;10204622;28;20146;-77
2024/04/08 00:18:21;;;;;;;5.70;3.05;;;;;;;14.39;100.00;99969.88;10216730;29;20050;-77
2024/04/08 00:23:22;;;;;;;10.52;4.03;;;;;;;14.34;100.00;99970.34;10214047;29;20039;-79
2024/04/08 00:28:23;;;;;;;9.68;3.50;;;;;;;14.38;100.00;99970.84;10218117;28;20036;-79
2024/04/08 00:33:24;;;;;;;7.72;3.95;;;;;;;14.36;100.00;99980.97;10201127;29;20495;-78
2024/04/08 00:38:25;;;;;;;9.50;4.25;;;;;;;14.00;100.00;99999.09;10219179;28;20043;-78
2024/04/08 00:43:26;;;;;;;8.93;3.60;;;;;;;14.06;100.00;99984.97;10220174;28;20044;-78
2024/04/08 00:48:26;;;;;;;11.18;3.53;;;;;;;14.10;100.00;99971.00;10219179;28;20039;-77
2024/04/08 00:53:27;;;;;;;5.97;3.85;;;;;;;14.18;100.00;99990.94;10226382;29;20107;-78
2024/04/08 00:58:30;;;;;;;5.13;3.58;;;;;;;14.15;100.00;99986.72;10242048;29;20360;-79
2024/04/08 01:03:31;;;;;;;8.80;3.47;;;;;;;14.20;100.00;100003.28;10201196;28;20107;-80
2024/04/08 01:08:32;;;;;;;5.38;3.40;;;;;;;14.09;100.00;100023.28;10244132;29;20042;-79
2024/04/08 01:13:34;;;;;;;5.38;3.15;;;;;;;13.65;100.00;100049.38;10218974;29;20047;-79
2024/04/08 01:18:34;;;;;;;9.45;3.88;;;;;;;13.63;100.00;100044.16;10211294;29;20035;-79
2024/04/08 01:23:41;;;;;;;8.02;3.65;;;;;;;13.74;100.00;100040.38;10191703;29;20043;-78
2024/04/08 01:28:41;;;;;;;9.50;4.43;;;;;;;13.64;100.00;100055.78;10204675;29;20368;-79
2024/04/08 01:33:42;;;;;;;14.00;4.22;;;;;;;13.65;100.00;100033.19;10212013;29;20075;-79
2024/04/08 01:38:43;;;;;;;7.97;4.65;;;;;;;13.78;100.00;100014.75;10194821;29;20047;-79
2024/04/08 01:43:45;;;;;;;14.32;4.57;;;;;;;13.86;100.00;100017.53;10213803;29;20056;-79
2024/04/08 01:48:46;;;;;;;15.93;5.28;;;;;;;13.93;100.00;100002.44;10194470;29;20044;-79
2024/04/08 01:53:47;;;;;;;11.70;5.50;;;;;;;14.01;100.00;99988.13;10210255;28;20092;-78
2024/04/08 01:58:48;;;;;;;14.02;5.18;;;;;;;13.90;100.00;99991.94;10218122;29;20051;-79
2024/04/08 02:03:48;;;;;;;12.27;5.65;;;;;;;13.90;100.00;99975.75;10214640;29;20051;-79
2024/04/08 02:08:49;;;;;;;9.95;5.20;;;;;;;13.89;100.00;99970.47;10222703;28;20071;-79
2024/04/08 02:13:50;;;;;;;10.65;4.75;;;;;;;13.96;100.00;99970.69;10223083;29;20048;-79
2024/04/08 02:18:51;;;;;;;10.10;5.13;;;;;;;13.94;100.00;99985.22;10224116;29;20055;-79
2024/04/08 02:23:52;;;;;;;12.95;5.20;;;;;;;13.81;100.00;99992.84;10197994;29;20036;-79
2024/04/08 02:28:52;;;;;;;11.50;4.82;;;;;;;13.76;100.00;99995.16;10216747;29;20047;-79
2024/04/08 02:33:53;;;;;;;8.70;5.03;;;;;;;13.82;100.00;99997.28;10222986;29;20111;-80
2024/04/08 02:38:54;;;;;;;8.90;6.63;;;;;;;13.71;100.00;100005.56;10208169;29;20044;-80
2024/04/08 02:43:55;;;;;;;8.95;6.28;;;;;;;13.50;100.00;99984.31;10227565;28;20051;-80
2024/04/08 02:48:56;;;;;;;10.50;7.05;;;;;;;13.66;100.00;99975.53;10224850;29;20055;-80
2024/04/08 02:53:56;;;;;;;12.38;6.38;;;;;;;13.61;100.00;100016.44;10217031;29;20059;-80
2024/04/08 02:58:57;;;;;;;13.05;7.25;;;;;;;13.16;100.00;100014.56;10213110;28;20035;-80
2024/04/08 03:03:58;;;;;;;11.18;6.82;;;;;;;13.33;100.00;99985.06;10216404;28;20063;-80
2024/04/08 03:08:58;;;;;;;13.48;6.88;;;;;;;13.56;100.00;99982.84;10228606;29;20050;-80
2024/04/08 03:13:59;;;;;;;8.98;7.05;;;;;;;13.53;100.00;99965.09;10222392;29;20081;-80
2024/04/08 03:19:00;;;;;;;8.85;6.57;;;;;;;13.57;100.00;99950.28;10209404;29;20047;-80
2024/04/08 03:24:02;;;;;;;9.00;6.78;;;;;;;13.61;100.00;99951.69;10206474;28;20063;-80
2024/04/08 03:29:02;;;;;;;8.90;6.28;;;;;;;13.61;100.00;99923.84;10212438;29;20051;-80
2024/04/08 03:34:04;;;;;;;11.40;6.15;;;;;;;13.56;100.00;99921.63;10192529;29;20062;-79
2024/04/08 03:39:05;;;;;;;14.00;6.97;;;;;;;13.64;100.00;99937.03;10211072;28;20119;-79
2024/04/08 03:44:05;;;;;;;10.98;6.18;;;;;;;13.63;100.00;99929.91;10207306;28;20039;-79
2024/04/08 03:49:06;;;;;;;12.07;6.43;;;;;;;13.55;100.00;99932.53;10236522;28;20119;-79
2024/04/08 03:54:07;;;;;;;12.30;5.07;;;;;;;13.48;100.00;99941.25;10209648;29;20050;-79
2024/04/08 03:59:08;;;;;;;9.82;5.35;;;;;;;13.55;100.00;99943.34;10234241;29;20114;-79
2024/04/08 04:04:09;;;;;;;10.15;4.85;;;;;;;13.45;100.00;99935.34;10224009;28;20061;-80
2024/04/08 04:09:12;;;;;;;8.98;4.43;;;;;;;13.33;100.00;99944.63;10227142;28;20047;-80
2024/04/08 04:14:13;;;;;;;7.65;4.93;;;;;;;13.28;100.00;99931.59;10218886;29;20640;-79
2024/04/08 04:19:14;;;;;;;8.77;4.68;;;;;;;13.25;100.00;99911.19;10209207;29;20050;-80
2024/04/08 04:24:14;;;;;;;12.25;4.80;;;;;;;13.01;100.00;99892.88;10219449;29;20063;-79
2024/04/08 04:29:15;;;;;;;9.57;4.10;;;;;;;12.97;100.00;99887.94;10211855;29;20087;-80
2024/04/08 04:34:16;;;;;;;9.18;3.92;;;;;;;13.02;100.00;99869.47;10213059;29;20170;-79
2024/04/08 04:39:17;;;;;;;14.10;4.03;;;;;;;12.77;100.00;99826.09;10224747;29;20050;-79
2024/04/08 04:44:18;;;;;;;8.85;3.85;;;;;;;12.64;100.00;99849.84;10227130;29;20053;-78
2024/04/08 04:49:18;;;;;;;6.80;4.60;;;;;;;12.67;100.00;99846.00;10224256;29;20048;-79
2024/04/08 04:54:19;;;;;;;8.25;4.40;;;;;;;12.65;100.00;99839.94;10209104;29;20062;-80
2024/04/08 04:59:22;;;;;;;10.98;4.90;;;;;;;12.58;100.00;99870.16;10223585;29;20084;-80
2024/04/08 05:04:22;;;;;;;12.68;5.80;;;;;;;12.67;100.00;99879.22;10232349;29;20036;-80
2024/04/08 05:09:23;;;;;;;14.70;5.78;;;;;;;12.78;100.00;99879.00;10232501;29;20051;-80
2024/04/08 05:14:24;;;;;;;14.25;6.60;;;;;;;12.80;100.00;99871.59;10238223;29;20062;-79
2024/04/08 05:19:25;;;;;;;11.20;5.93;;;;;;;12.81;100.00;99864.38;10199689;29;20047;-80
2024/04/08 05:24:25;;;;;;;8.52;5.55;;;;;;;12.74;100.00;99847.94;10200146;29;20048;-80
2024/04/08 05:29:26;;;;;;;9.75;4.93;;;;;;;12.76;100.00;99847.81;10223904;29;20052;-79
2024/04/08 05:34:27;;;;;;;8.88;5.13;;;;;;;12.89;100.00;99840.22;10216022;29;20047;-80
2024/04/08 05:39:27;;;;;;;7.03;4.22;;;;;;;12.94;100.00;99840.56;10219038;28;20054;-80
2024/04/08 05:44:28;;;;;;;13.80;5.20;;;;;;;12.45;100.00;99863.41;10205044;29;20063;-80
2024/04/08 05:49:29;;;;;;;8.02;4.38;;;;;;;12.39;100.00;99872.94;10213496;29;20043;-79
2024/04/08 05:54:30;;;;;;;12.65;5.18;;;;;;;12.15;100.00;99881.53;10221841;29;20503;-80
2024/04/08 05:59:31;;;;;;;8.90;5.43;;;;;;;12.59;100.00;99881.81;10212681;28;20107;-79
2024/04/08 06:04:32;;;;;;;11.63;5.07;;;;;;;13.10;100.00;99868.72;10216878;29;20066;-79
2024/04/08 06:09:32;;;;;;;9.00;4.55;;;;;;;13.33;100.00;99875.34;10211820;29;20039;-79
2024/04/08 06:14:33;;;;;;;8.27;4.95;;;;;;;13.47;100.00;99866.75;10218596;29;20050;-81
2024/04/08 06:19:34;;;;;;;13.93;5.40;;;;;;;13.59;100.00;99864.63;10224548;28;20043;-80
2024/04/08 06:24:35;;;;;;;6.82;4.88;;;;;;;13.75;100.00;99849.56;10215548;28;20136;-80
2024/04/08 06:29:36;;;;;;;3.38;2.17;;;;;;;13.90;100.00;99840.75;10223912;28;20109;-80
2024/04/08 06:34:37;;;;;;;4.25;2.40;;;;;;;14.27;100.00;99855.78;10240315;28;20039;-80
2024/04/08 06:39:38;;;;;;;6.20;3.30;;;;;;;14.45;100.00;99861.13;10223447;28;20070;-79
2024/04/08 06:44:38;;;;;;;6.40;2.47;;;;;;;14.46;100.00;99865.53;10208949;28;20077;-80
2024/04/08 06:49:40;;;;;;;12.57;3.80;;;;;;;14.55;100.00;99866.41;10232150;28;20039;-80
2024/04/08 06:54:43;;;;;;;9.93;3.40;;;;;;;14.61;100.00;99868.47;10202324;29;20554;-78
2024/04/08 06:59:44;;;;;;;;;;;;;;;14.78;100.00;99851.31;10210969;28;20050;-80
2024/04/08 07:04:46;;;;;;;7.13;3.57;;;;;;;14.89;100.00;99852.00;10197419;28;19934;-79
2024/04/08 07:09:46;;;;;;;4.57;3.22;;;;;;;14.99;100.00;99853.53;10228772;28;20043;-79
2024/04/08 07:14:52;;;;;;;5.95;3.67;;;;;;;15.02;100.00;99839.69;10221922;28;20071;-79
2024/04/08 07:19:53;;;;;;;5.82;3.90;;;;;;;15.25;100.00;99839.91;10217237;28;20035;-80
2024/04/08 07:24:54;;;;;;;7.35;3.58;;;;;;;15.31;100.00;99853.78;10240442;28;20050;-79
2024/04/08 07:29:54;;;;;;;5.30;4.75;;;;;;;15.51;100.00;99862.44;10202882;28;20066;-80
2024/04/08 07:34:56;;;;;;;9.05;4.55;;;;;;;15.62;100.00;99857.50;10219106;28;20051;-81
2024/04/08 07:39:56;;;;;;;10.68;4.82;;;;;;;15.58;100.00;99858.03;10225169;28;20043;-80
2024/04/08 07:44:58;;;;;;;6.80;3.78;;;;;;;15.62;100.00;99873.75;10227343;28;20048;-78
2024/04/08 07:49:59;;;;;;;7.00;4.47;;;;;;;15.31;100.00;99875.41;10224741;28;20043;-80
2024/04/08 07:54:59;;;;;;;8.48;4.78;;;;;;;15.45;100.00;99872.06;10206297;28;20062;-79
2024/04/08 08:00:01;;;;;;;9.95;5.00;;;;;;;15.84;100.00;99861.38;10218073;28;20106;-78
2024/04/08 08:05:02;;;;;;;8.80;4.32;;;;;;;15.93;100.00;99849.53;10213606;28;20508;-81
2024/04/08 08:10:03;;;;;;;9.02;4.75;;;;;;;16.39;100.00;99840.78;10202730;28;20046;-80
2024/04/08 08:15:04;;;;;;;7.43;4.40;;;;;;;17.28;100.00;99835.03;10235359;28;20087;-77
2024/04/08 08:20:05;;;;;;;6.78;4.10;;;;;;;17.30;98.72;99841.13;10245275;28;20043;-80
2024/04/08 08:25:06;;;;;;;13.13;4.22;;;;;;;17.35;100.00;99836.84;10224054;28;20051;-80
2024/04/08 08:30:07;;;;;;;7.05;3.72;;;;;;;17.76;100.00;99827.50;10217015;28;20876;-81
2024/04/08 08:35:08;;;;;;;5.97;3.88;;;;;;;17.41;97.12;99833.41;10222946;28;20043;-80
2024/04/08 08:40:09;;;;;;;11.63;4.20;;;;;;;17.63;93.96;99830.84;10224017;28;20103;-80
2024/04/08 08:45:12;;;;;;;7.88;3.80;;;;;;;17.96;100.00;99825.94;10211006;28;20392;-80
2024/04/08 08:50:13;;;;;;;5.50;3.83;;;;;;;17.88;90.33;99840.47;10223883;28;20105;-82
2024/04/08 08:55:16;;;;;;;5.22;3.88;;;;;;;17.98;92.60;99828.50;10199149;28;20047;-82
2024/04/08 09:00:18;;;;;;;10.32;4.07;;;;;;;18.17;87.73;99818.97;10216425;28;20410;-83
2024/04/08 09:05:18;;;;;;;9.85;4.97;;;;;;;18.60;87.00;99816.41;10206269;28;20058;-80
2024/04/08 09:10:20;;;;;;;6.35;3.97;;;;;;;19.35;85.29;99812.41;10220446;28;20040;-79
2024/04/08 09:15:21;;;;;;;8.33;4.47;;;;;;;19.31;79.88;99819.25;10226818;28;20046;-80
2024/04/08 09:20:22;;;;;;;10.50;3.97;;;;;;;19.64;85.52;99804.09;10220421;28;20040;-81
2024/04/08 09:25:24;;;;;;;7.38;4.07;;;;;;;20.24;81.23;99777.22;10222086;28;20051;-79
2024/04/08 09:30:25;;;;;;;6.60;4.57;;;;;;;20.36;75.24;99761.16;10248483;28;20040;-81
2024/04/08 09:35:28;;;;;;;7.97;4.60;;;;;;;20.64;68.25;99768.38;10227849;28;21319;-82
2024/04/08 09:40:29;;;;;;;7.85;4.30;;;;;;;19.84;70.59;99768.81;10221426;28;20120;-80
2024/04/08 09:45:33;;;;;;;8.43;4.88;;;;;;;20.97;87.03;99755.63;10221163;28;20043;-80
2024/04/08 09:50:35;;;;;;;7.38;3.95;;;;;;;21.49;67.36;99735.94;10221818;28;20042;-79
2024/04/08 09:55:40;;;;;;;9.13;4.20;;;;;;;20.50;66.79;99749.25;10222864;28;20043;-80
2024/04/08 10:00:44;;;;;;;10.38;4.18;;;;;;;20.74;62.53;99755.19;10226293;28;20043;-78
2024/04/08 10:05:45;;;;;;;7.65;4.38;;;;;;;20.56;63.63;99753.88;10211347;28;20066;-81
2024/04/08 10:10:47;;;;;;;7.25;3.70;;;;;;;21.56;63.43;99754.03;10217252;28;20410;-79
2024/04/08 10:15:47;;;;;;;8.73;4.63;;;;;;;22.00;59.72;99749.75;10204825;28;20043;-79
2024/04/08 10:20:49;;;;;;;9.27;3.72;;;;;;;21.96;61.32;99761.34;10223187;28;20039;-80
2024/04/08 10:25:50;;;;;;;11.57;4.40;;;;;;;22.13;56.97;99761.69;10222063;28;20116;-78
2024/04/08 10:30:51;;;;;;;11.20;5.00;;;;;;;22.04;58.39;99742.78;10203305;28;20044;-78
2024/04/08 10:35:52;;;;;;;7.53;4.85;;;;;;;23.02;55.83;99735.41;10209264;28;20047;-78
2024/04/08 10:40:54;;;;;;;7.20;4.50;;;;;;;23.42;53.76;99725.81;10204699;28;20522;-78
2024/04/08 10:45:55;;;;;;;11.68;3.90;;;;;;;23.34;52.52;99733.47;10221328;28;20055;-78
2024/04/08 10:50:56;;;;;;;8.27;3.95;;;;;;;23.29;53.47;99736.06;10227548;28;20118;-78
2024/04/08 10:55:57;;;;;;;8.20;3.78;;;;;;;23.66;53.39;99732.31;10225290;28;20094;-78
2024/04/08 11:00:57;;;;;;;11.10;3.55;;;;;;;25.00;48.77;99728.78;10200665;28;20071;-78
2024/04/08 11:05:58;;;;;;;5.72;4.10;;;;;;;25.90;47.92;99708.44;10210627;28;20052;-78
2024/04/08 11:10:59;;;;;;;9.40;3.33;;;;;;;26.49;46.05;99711.03;10198525;28;20052;-77
2024/04/08 11:16:00;;;;;;;8.00;4.00;;;;;;;24.60;48.03;99717.53;10213048;28;20039;-78
2024/04/08 11:21:01;;;;;;;11.60;3.67;;;;;;;25.79;47.36;99709.28;10214981;28;20499;-78
2024/04/08 11:26:04;;;;;;;7.77;3.43;;;;;;;26.41;44.79;99700.41;10213985;28;20113;-78
2024/04/08 11:31:06;;;;;;;7.25;3.35;;;;;;;26.18;44.68;99701.31;10196210;28;20050;-78
2024/04/08 11:36:07;;;;;;;;;;;;;;;26.09;46.38;99706.38;10221604;28;20044;-78
2024/04/08 11:41:08;;;;;;;6.73;3.53;;;;;;;25.56;47.55;99708.22;10212577;28;19933;-77
2024/04/08 11:46:11;;;;;;;6.97;2.90;;;;;;;23.78;47.74;99720.63;10213835;28;20537;-78
2024/04/08 11:51:12;;;;;;;7.70;3.78;;;;;;;23.67;48.90;99714.00;10215407;28;20060;-78
2024/04/08 11:56:13;;;;;;;9.97;3.43;;;;;;;23.58;48.45;99721.63;10198570;28;20075;-78
2024/04/08 12:01:14;;;;;;;6.88;2.42;;;;;;;23.72;45.84;99732.47;10196604;28;20035;-78
2024/04/08 12:06:15;;;;;;;10.07;2.87;;;;;;;23.91;46.71;99733.38;10205883;28;20495;-78
2024/04/08 12:11:16;;;;;;;12.80;3.60;;;;;;;23.37;48.56;99722.09;10211703;28;20051;-78
2024/04/08 12:16:17;;;;;;;9.57;3.10;;;;;;;23.35;46.56;99729.69;10209530;28;20063;-78
2024/04/08 12:21:17;;;;;;;6.87;3.00;;;;;;;24.13;45.43;99726.34;10213903;28;20042;-78
2024/04/08 12:26:18;;;;;;;10.83;2.97;;;;;;;23.46;46.23;99717.97;10217738;28;20048;-78
2024/04/08 12:31:19;;;;;;;10.20;3.42;;;;;;;23.35;47.22;99692.16;10215570;28;20048;-78
2024/04/08 12:36:20;;;;;;;8.17;3.17;;;;;;;23.95;48.19;99677.84;10195299;28;20048;-78
2024/04/08 12:41:22;;;;;;;6.40;3.43;;;;;;;23.34;46.83;99675.91;10212176;28;20051;-78
2024/04/08 12:46:23;;;;;;;4.93;2.58;;;;;;;23.73;47.25;99662.88;10221880;28;20039;-78
2024/04/08 12:51:23;;;;;;;7.93;2.47;;;;;;;23.75;46.07;99652.50;10224121;28;20047;-78
2024/04/08 12:56:24;;;;;;;6.53;2.70;;;;;;;24.06;44.92;99648.81;10215666;28;20043;-78
2024/04/08 13:01:25;;;;;;;14.63;3.50;;;;;;;23.41;47.29;99630.97;10252176;28;20055;-78
2024/04/08 13:06:26;;;;;;;7.32;2.90;;;;;;;22.28;50.35;99636.47;10212429;28;20044;-78
2024/04/08 13:11:27;;;;;;;7.28;3.10;;;;;;;24.64;47.61;99622.66;10196452;28;20411;-78
2024/04/08 13:16:27;;;;;;;14.40;3.63;;;;;;;24.80;45.21;99619.25;10216232;28;20073;-78
2024/04/08 13:21:28;;;;;;;6.90;3.57;;;;;;;25.77;45.95;99618.75;10207204;28;20043;-78
2024/04/08 13:26:31;;;;;;;10.13;3.28;;;;;;;26.60;42.26;99618.44;10221862;28;20040;-78
2024/04/08 13:31:32;;;;;;;7.75;2.88;;;;;;;27.20;41.83;99611.44;10218991;28;20660;-78
2024/04/08 13:36:34;;;;;;;9.73;3.63;;;;;;;26.35;41.59;99618.81;10207106;28;20039;-77
2024/04/08 13:41:35;;;;;;;8.65;3.83;;;;;;;26.13;42.47;99616.72;10216769;28;20055;-77
2024/04/08 13:46:36;;;;;;;9.03;3.73;;;;;;;25.65;44.73;99597.88;10235815;28;20043;-78
2024/04/08 13:51:37;;;;;;;5.90;3.07;;;;;;;25.45;45.30;99618.31;10224850;28;20044;-79
2024/04/08 13:56:37;;;;;;;10.47;3.50;;;;;;;26.06;42.93;99603.13;10225243;28;20051;-78
2024/04/08 14:01:38;;;;;;;7.13;3.37;;;;;;;25.97;42.58;99596.34;10204081;28;20071;-77
2024/04/08 14:06:39;;;;;;;12.53;2.83;;;;;;;25.35;44.87;99590.59;10221898;28;20122;-78
2024/04/08 14:11:40;;;;;;;9.30;3.10;;;;;;;25.49;46.00;99588.44;10228547;28;20083;-77
2024/04/08 14:16:41;;;;;;;7.17;2.60;;;;;;;24.95;45.43;99592.13;10228980;28;20060;-78
2024/04/08 14:21:41;;;;;;;7.47;2.90;;;;;;;24.43;46.78;99608.41;10249224;28;20039;-77
2024/04/08 14:26:42;;;;;;;8.30;2.40;;;;;;;25.30;46.57;99594.06;10223319;28;20487;-78
2024/04/08 14:31:43;;;;;;;9.63;2.57;;;;;;;25.61;44.64;99601.06;10205487;28;20154;-77
2024/04/08 14:36:45;;;;;;;6.60;2.43;;;;;;;25.05;45.66;99610.81;10218331;28;20042;-78
2024/04/08 14:41:46;;;;;;;7.90;2.90;;;;;;;24.79;46.96;99606.56;10199259;28;20061;-79
2024/04/08 14:46:51;;;;;;;5.07;2.73;;;;;;;24.52;47.29;99597.94;10201566;28;20122;-78
2024/04/08 14:51:51;;;;;;;7.78;2.88;;;;;;;23.77;48.36;99612.88;10221550;28;20091;-77
2024/04/08 14:56:52;;;;;;;7.80;2.88;;;;;;;23.52;51.06;99604.69;10219352;28;20051;-78
2024/04/08 15:01:53;;;;;;;8.75;2.85;;;;;;;23.28;50.71;99609.16;10212921;28;20043;-77
2024/04/08 15:06:54;;;;;;;8.18;3.08;;;;;;;23.18;51.71;99614.34;10193366;29;20554;-77
2024/04/08 15:11:54;;;;;;;8.43;2.92;;;;;;;23.33;51.66;99608.50;10203685;29;20426;-77
2024/04/08 15:16:55;;;;;;;7.07;2.85;;;;;;;23.24;51.18;99609.88;10213368;29;20050;-78
2024/04/08 15:21:56;;;;;;;7.72;2.75;;;;;;;23.59;50.61;99613.69;10208146;29;20107;-78
2024/04/08 15:26:57;;;;;;;11.70;3.42;;;;;;;23.42;51.58;99618.94;10201955;29;20059;-78
2024/04/08 15:32:00;;;;;;;8.77;2.83;;;;;;;23.34;51.83;99601.94;10210312;29;20047;-78
2024/04/08 15:37:00;;;;;;;7.70;2.65;;;;;;;22.80;51.57;99595.28;10205275;29;20454;-78
2024/04/08 15:42:01;;;;;;;7.88;3.40;;;;;;;22.42;50.73;99579.75;10206110;29;20039;-77
2024/04/08 15:47:02;;;;;;;7.63;3.10;;;;;;;21.97;52.46;99577.94;10189918;29;20443;-78
2024/04/08 15:52:04;;;;;;;9.70;3.10;;;;;;;22.04;52.79;99566.97;10190193;29;20101;-77
2024/04/08 15:57:07;;;;;;;10.80;2.88;;;;;;;22.06;53.21;99552.03;10206487;29;20407;-77
2024/04/08 16:02:08;;;;;;;7.53;2.70;;;;;;;22.05;55.52;99542.16;10189150;29;20082;-77
2024/04/08 16:08:40;;;;;;;8.30;3.13;;;;;;;21.82;58.28;99522.72;11443148;25;20422;-78
2024/04/08 16:13:42;;;;;;;9.77;3.28;;;;;;;21.67;56.39;99534.75;11348038;25;20002;-78
2024/04/08 16:18:43;;;;;;;12.60;4.20;;;;;;;21.66;57.57;99538.53;11354463;25;20010;-78
2024/04/08 16:23:46;;;;;;;;;;;;;;;21.68;60.11;99528.22;11369879;25;20016;-78
2024/04/08 16:28:57;;;;;;;10.48;3.17;;;;;;;21.95;58.32;99535.47;11358683;25;19940;-77
2024/04/08 16:34:04;;;;;;;10.07;3.30;;;;;;;23.74;53.69;99522.00;11363832;25;20432;-78
2024/04/08 16:39:06;;;;;;;9.18;3.38;;;;;;;24.58;49.85;99497.34;11372606;25;20009;-78
2024/04/08 16:44:09;;;;;;;8.82;3.55;;;;;;;24.71;48.76;99505.31;11366453;25;20005;-78
2024/04/08 16:49:10;;;;;;;7.55;3.22;;;;;;;24.45;48.83;99499.22;11374663;25;20016;-77
2024/04/08 16:54:12;;;;;;;11.52;3.38;;;;;;;24.09;48.64;99495.56;11369038;25;20001;-77
2024/04/08 16:59:16;;;;;;;5.45;3.28;;;;;;;23.91;49.28;99486.56;11369600;25;20508;-77
2024/04/08 17:04:17;;;;;;;7.88;3.50;;;;;;;23.72;50.55;99480.25;11360530;25;19994;-77
2024/04/08 17:09:26;;;;;;;;;;;;;;;23.18;53.07;99477.41;11366378;25;20108;-77
2024/04/08 17:14:29;;;;;;;8.55;3.72;;;;;;;23.03;53.61;99474.16;11374646;25;19934;-77
2024/04/08 17:19:31;;;;;;;8.25;3.08;;;;;;;22.77;53.44;99474.22;11328366;25;20020;-76
2024/04/08 17:24:33;;;;;;;9.63;3.60;;;;;;;22.45;54.87;99472.66;11329568;26;19998;-76
2024/04/08 17:29:35;;;;;;;8.60;3.53;;;;;;;22.16;55.61;99472.25;11340826;26;20055;-78
2024/04/08 17:34:37;;;;;;;7.47;3.58;;;;;;;21.91;56.60;99463.97;11325941;26;20005;-77
2024/04/08 17:39:39;;;;;;;8.02;3.75;;;;;;;21.70;57.72;99464.31;11337837;26;20058;-78
2024/04/08 17:44:41;;;;;;;10.40;3.72;;;;;;;21.41;58.91;99455.63;11321818;26;20010;-77
2024/04/08 17:49:43;;;;;;;7.40;3.45;;;;;;;21.04;60.25;99460.03;11335729;26;20567;-79
2024/04/08 17:54:46;;;;;;;9.57;3.67;;;;;;;20.78;61.49;99451.63;11330936;26;19998;-78
2024/04/08 17:59:48;;;;;;;10.10;4.05;;;;;;;20.56;62.54;99448.31;11347167;26;20003;-79
2024/04/08 18:04:52;;;;;;;8.88;3.88;;;;;;;20.34;63.53;99444.16;11355633;26;19999;-78
2024/04/08 18:09:54;;;;;;;16.40;4.15;;;;;;;20.12;64.04;99440.78;11346517;26;20011;-80
2024/04/08 18:14:55;;;;;;;11.88;4.03;;;;;;;19.88;65.57;99437.66;11338677;26;19999;-78
2024/04/08 18:19:57;;;;;;;9.40;3.83;;;;;;;19.68;66.59;99432.16;11357677;26;20472;-78
2024/04/08 18:24:59;;;;;;;10.38;4.65;;;;;;;19.54;66.62;99438.59;11327229;26;20410;-80
2024/04/08 18:30:01;;;;;;;11.63;3.95;;;;;;;19.45;67.43;99451.56;11362770;26;20001;-79
2024/04/08 18:35:06;;;;;;;12.68;4.70;;;;;;;19.34;67.55;99443.16;11381033;26;20009;-80
2024/04/08 18:40:08;;;;;;;9.82;5.53;;;;;;;19.24;67.94;99438.06;11316877;26;20023;-80
2024/04/08 18:45:11;;;;;;;9.38;5.43;;;;;;;19.14;68.36;99438.47;11360945;26;20025;-79
2024/04/08 18:50:13;;;;;;;12.73;5.22;;;;;;;19.07;68.88;99432.16;11366509;25;20012;-79
2024/04/08 18:55:15;;;;;;;12.55;5.97;;;;;;;18.98;69.24;99426.06;11352031;26;20464;-79
2024/04/08 19:00:16;;;;;;;14.77;6.25;;;;;;;18.78;70.56;99420.50;11349943;26;19998;-78
2024/04/08 19:05:21;;;;;;;17.88;7.43;;;;;;;18.78;70.68;99420.50;11345979;26;20390;-79
2024/04/08 19:10:23;;;;;;;23.27;13.57;;;;;;;18.77;71.16;99426.94;11358113;26;20082;-79
2024/04/08 19:15:24;;;;;;;14.52;7.93;;;;;;;18.71;72.44;99427.75;11357818;26;19998;-78
2024/04/08 19:20:27;;;;;;;18.40;7.40;;;;;;;18.70;72.47;99428.78;11349500;26;20005;-78
2024/04/08 19:25:29;;;;;;;;;;;;;;;18.66;72.47;99419.34;11362037;25;19995;-80
2024/04/08 19:30:30;;;;;;;12.57;6.43;;;;;;;18.54;73.38;99412.78;11336245;26;19925;-80
2024/04/08 19:35:32;;;;;;;12.98;5.47;;;;;;;18.51;73.22;99411.34;11348705;26;20330;-78
2024/04/08 19:40:34;;;;;;;11.18;5.60;;;;;;;18.50;73.08;99412.34;11331820;26;20029;-79
2024/04/08 19:45:36;;;;;;;11.13;5.35;;;;;;;18.49;73.07;99410.69;11339899;26;19999;-79
2024/04/08 19:50:43;;;;;;;12.18;6.65;;;;;;;18.39;73.41;99402.03;11322904;26;20013;-79
2024/04/08 19:55:45;;;;;;;14.60;7.53;;;;;;;18.20;73.78;99398.13;11328601;26;19999;-79
2024/04/08 20:00:47;;;;;;;12.55;6.50;;;;;;;18.03;74.52;99392.16;11331757;26;20003;-78
2024/04/08 20:05:58;;;;;;;12.50;6.03;;;;;;;17.89;73.99;99376.78;11352542;26;20077;-80
2024/04/08 20:11:01;;;;;;;8.87;4.63;;;;;;;17.82;73.31;99379.41;11367706;26;20010;-81
2024/04/08 20:16:15;;;;;;;14.15;5.22;;;;;;;17.79;72.79;99376.25;11380689;26;20006;-78
2024/04/08 20:21:23;;;;;;;13.52;5.28;;;;;;;17.75;72.01;99364.13;11369979;26;20013;-78
2024/04/08 20:26:25;;;;;;;11.63;6.10;;;;;;;17.74;72.15;99349.69;11337554;26;20031;-79
2024/04/08 20:31:27;;;;;;;9.90;5.30;;;;;;;17.68;72.36;99343.16;11344292;26;20002;-79
2024/04/08 20:36:29;;;;;;;14.10;5.13;;;;;;;17.68;72.32;99336.88;11355680;26;20009;-80
2024/04/08 20:41:32;;;;;;;13.57;5.38;;;;;;;17.65;72.50;99315.56;11387376;26;20021;-80
2024/04/08 20:46:34;;;;;;;16.17;5.15;;;;;;;17.59;72.35;99319.91;11363764;26;20004;-79
2024/04/08 20:51:36;;;;;;;10.70;5.00;;;;;;;17.58;72.68;99314.66;11366204;26;20021;-78
2024/04/08 20:56:48;;;;;;;12.38;4.93;;;;;;;17.50;73.00;99331.09;11366389;26;20009;-79
2024/04/08 21:01:50;;;;;;;14.98;5.72;;;;;;;17.45;73.67;99328.97;11358330;26;20010;-79
2024/04/08 21:06:53;;;;;;;12.80;4.80;;;;;;;17.52;73.16;99315.44;11354771;26;20002;-79
2024/04/08 21:11:55;;;;;;;11.88;5.55;;;;;;;17.52;73.00;99323.59;11341527;26;20003;-80
2024/04/08 21:16:57;;;;;;;14.00;5.70;;;;;;;17.52;73.26;99323.59;11335778;26;20031;-80
2024/04/08 21:21:58;;;;;;;15.98;5.80;;;;;;;17.51;73.61;99341.75;11318851;26;20013;-79
2024/04/08 21:27:00;;;;;;;15.38;5.55;;;;;;;17.35;74.96;99344.72;11328688;26;20010;-78
2024/04/08 21:32:02;;;;;;;16.77;5.65;;;;;;;17.32;74.90;99326.97;11356539;26;20461;-79
2024/04/08 21:37:04;;;;;;;11.55;5.25;;;;;;;17.36;74.90;99328.28;11331485;26;19998;-80
2024/04/08 21:42:07;;;;;;;13.05;5.78;;;;;;;17.33;75.11;99325.09;11343291;26;20342;-79
2024/04/08 21:47:09;;;;;;;12.88;6.00;;;;;;;16.89;78.31;99332.31;11336641;26;19998;-79
2024/04/08 21:52:10;;;;;;;10.57;5.32;;;;;;;16.68;79.63;99327.69;11379149;25;20021;-79
2024/04/08 21:57:12;;;;;;;12.30;6.75;;;;;;;16.77;79.36;99312.16;11342346;26;19999;-78
2024/04/08 22:02:14;;;;;;;13.80;6.15;;;;;;;16.75;80.05;99314.22;11362107;25;20658;-78
2024/04/08 22:07:16;;;;;;;12.70;5.57;;;;;;;16.78;80.13;99298.41;11342760;26;19998;-78
2024/04/08 22:12:18;;;;;;;11.32;6.72;;;;;;;16.71;79.94;99281.22;11377421;26;20400;-78
2024/04/08 22:17:24;;;;;;;19.42;8.05;;;;;;;16.74;79.89;99297.09;11344661;26;20434;-79
2024/04/08 22:22:26;;;;;;;15.90;8.50;;;;;;;16.75;79.42;99304.19;11348052;26;20035;-79
2024/04/08 22:27:27;;;;;;;16.23;8.02;;;;;;;16.85;79.26;99309.31;11345585;26;19998;-80
2024/04/08 22:32:29;;;;;;;14.65;7.18;;;;;;;16.50;81.80;99292.84;11319702;26;20021;-79
2024/04/08 22:37:32;;;;;;;17.17;7.95;;;;;;;16.43;81.72;99294.66;11345670;26;20001;-79
2024/04/08 22:42:34;;;;;;;17.48;8.20;;;;;;;16.39;81.64;99296.03;11325974;26;20017;-78
2024/04/08 22:47:36;;;;;;;14.23;8.68;;;;;;;16.25;82.33;99284.16;11348318;26;20010;-80
2024/04/08 22:52:38;;;;;;;19.40;9.10;;;;;;;16.20;82.75;99275.75;11346408;26;20013;-79
2024/04/08 22:57:42;;;;;;;20.50;10.15;;;;;;;16.04;83.76;99263.22;11332254;26;20013;-78
2024/04/08 23:02:45;;;;;;;16.25;9.88;;;;;;;16.04;84.75;99259.69;11340829;26;20034;-79
2024/04/08 23:07:48;;;;;;;18.80;9.00;;;;;;;16.14;84.41;99262.97;11330823;26;20050;-81
2024/04/08 23:12:50;;;;;;;15.68;7.28;;;;;;;16.28;82.90;99258.59;11361395;26;20017;-80